Terminal Aerodrome Forecast
Issued by NWS Twin Cities, MN

Home | Current Version | Previous Version | Graphics & Text | Print | Product List | Glossary On
Versions: 1 2 3 4 5 6 7 8 9 10 11 12 13 14 15 16 17 18 19 20 21 22 23 24 25 26 27 28 29 30 31
000
FTUS43 KMPX 231523 AAC
TAFMSP
TAF AMD
KMSP 231523Z 2315/2418 10012KT P6SM VCSH SCT050 OVC100
     FM231545 VRB30G50KT 1 1/2SM TSRA BKN015 OVC025CB
     FM231615 12011G17KT 6SM -TSRA BKN050CB OVC100
      TEMPO 2317/2318 3SM -TSRA OVC035CB
     FM232000 14012G19KT P6SM SCT040 BKN090
     FM240200 17011KT P6SM VCSH BKN060
      TEMPO 2402/2404 2SM TSRA BKN020CB
     FM240500 23008KT P6SM SCT060 BKN100
     FM240800 28005KT P6SM SCT250=

USA.gov is the U.S. government's official web portal to all federal, state and local government web resources and services.